Time,TemperatureF,DewpointF,PressureIn,WindDirection,WindDirectionDegrees,WindSpeedMPH,WindSpeedGustMPH,Humidity,HourlyPrecipIn,Conditions,Clouds,dailyrainin,SoftwareType,DateUTC
2013-01-28 00:14:00,64.4,61.4,29.83,SSE,157,4.2,-999.0,90,-99.99,,,0.00,Acu-Link.com,2013-01-28 06:14:00,
2013-01-28 00:29:00,64.9,62.2,29.83,SE,135,4.2,-999.0,91,-99.99,,,0.00,Acu-Link.com,2013-01-28 06:29:00,
2013-01-28 00:45:00,65.3,62.6,29.83,SE,135,5.3,-999.0,91,-99.99,,,0.00,Acu-Link.com,2013-01-28 06:45:00,
2013-01-28 01:00:00,65.3,62.6,29.84,SE,135,3.7,-999.0,91,-99.99,,,0.00,Acu-Link.com,2013-01-28 07:00:00,
2013-01-28 01:15:00,65.7,63.0,29.83,SSE,157,4.7,-999.0,91,-99.99,,,0.00,Acu-Link.com,2013-01-28 07:15:00,
2013-01-28 01:31:00,65.7,63.0,29.84,SE,135,4.7,-999.0,91,-99.99,,,0.00,Acu-Link.com,2013-01-28 07:31:00,
2013-01-28 01:46:00,65.1,62.7,29.83,ESE,112,2.7,-999.0,92,-99.99,,,0.00,Acu-Link.com,2013-01-28 07:46:00,
2013-01-28 02:01:00,65.1,62.7,29.83,South,180,4.7,-999.0,92,-99.99,,,0.00,Acu-Link.com,2013-01-28 08:01:00,
2013-01-28 02:16:00,65.1,62.7,29.82,SSE,157,4.2,-999.0,92,-99.99,,,0.00,Acu-Link.com,2013-01-28 08:16:00,
2013-01-28 02:31:00,65.3,62.9,29.82,SSE,157,4.7,-999.0,92,-99.99,,,0.00,Acu-Link.com,2013-01-28 08:31:00,
2013-01-28 02:47:00,65.1,62.7,29.82,SSE,157,4.7,-999.0,92,-99.99,,,0.00,Acu-Link.com,2013-01-28 08:47:00,
2013-01-28 03:15:00,64.6,62.5,29.81,SSW,202,3.7,-999.0,93,-99.99,,,0.00,Acu-Link.com,2013-01-28 09:15:00,
2013-01-28 03:30:00,64.4,62.6,29.82,SSE,157,4.7,-999.0,94,-99.99,,,0.00,Acu-Link.com,2013-01-28 09:30:00,
2013-01-28 03:45:00,64.0,62.5,29.82,SSE,157,3.2,-999.0,95,-99.99,,,0.00,Acu-Link.com,2013-01-28 09:45:00,
2013-01-28 04:01:00,63.5,62.3,29.82,SSE,157,2.2,-999.0,96,-99.99,,,0.00,Acu-Link.com,2013-01-28 10:01:00,
2013-01-28 04:16:00,63.0,62.1,29.81,SSE,157,3.7,-999.0,97,-99.99,,,0.00,Acu-Link.com,2013-01-28 10:16:00,
2013-01-28 04:31:00,62.4,61.8,29.80,SE,135,4.2,-999.0,98,-99.99,,,0.00,Acu-Link.com,2013-01-28 10:31:00,
2013-01-28 04:47:00,62.2,61.9,29.80,SE,135,5.3,-999.0,99,-99.99,,,0.00,Acu-Link.com,2013-01-28 10:47:00,
2013-01-28 05:02:00,62.2,61.9,29.80,SSE,157,5.3,-999.0,99,-99.99,,,0.00,Acu-Link.com,2013-01-28 11:02:00,
2013-01-28 05:17:00,62.1,61.8,29.80,SSE,157,5.8,-999.0,99,-99.99,,,0.00,Acu-Link.com,2013-01-28 11:17:00,
2013-01-28 05:32:00,61.9,61.6,29.80,SE,135,3.2,-999.0,99,-99.99,,,0.00,Acu-Link.com,2013-01-28 11:32:00,
2013-01-28 05:48:00,61.5,61.2,29.81,SE,135,5.3,-999.0,99,-99.99,,,0.00,Acu-Link.com,2013-01-28 11:48:00,
2013-01-28 06:03:00,61.3,61.0,29.81,SSE,157,5.3,-999.0,99,-99.99,,,0.00,Acu-Link.com,2013-01-28 12:03:00,
2013-01-28 06:18:00,61.3,61.0,29.80,SSE,157,6.8,-999.0,99,-99.99,,,0.00,Acu-Link.com,2013-01-28 12:18:00,
2013-01-28 06:34:00,61.9,61.6,29.80,SSE,157,7.3,-999.0,99,-99.99,,,0.00,Acu-Link.com,2013-01-28 12:34:00,
2013-01-28 06:49:00,62.4,62.1,29.81,SE,135,5.8,-999.0,99,-99.99,,,0.00,Acu-Link.com,2013-01-28 12:49:00,
2013-01-28 07:04:00,62.8,62.5,29.80,SSE,157,4.7,-999.0,99,-99.99,,,0.00,Acu-Link.com,2013-01-28 13:04:00,
2013-01-28 07:20:00,62.8,62.5,29.81,SE,135,5.3,-999.0,99,-99.99,,,0.00,Acu-Link.com,2013-01-28 13:20:00,
2013-01-28 07:35:00,62.4,62.1,29.81,SSE,157,4.2,-999.0,99,-99.99,,,0.00,Acu-Link.com,2013-01-28 13:35:00,
2013-01-28 07:50:00,62.4,62.1,29.82,SSE,157,3.7,-999.0,99,-99.99,,,0.00,Acu-Link.com,2013-01-28 13:50:00,
2013-01-28 08:05:00,63.0,62.7,29.82,SSE,157,4.2,-999.0,99,-99.99,,,0.00,Acu-Link.com,2013-01-28 14:05:00,
2013-01-28 08:21:00,64.4,63.8,29.83,SE,135,4.7,-999.0,98,-99.99,,,0.00,Acu-Link.com,2013-01-28 14:21:00,
2013-01-28 08:36:00,64.4,63.8,29.82,SE,135,3.2,-999.0,98,-99.99,,,0.00,Acu-Link.com,2013-01-28 14:36:00,
2013-01-28 08:51:00,64.9,64.3,29.83,South,180,4.2,-999.0,98,-99.99,,,0.00,Acu-Link.com,2013-01-28 14:51:00,
2013-01-28 09:07:00,65.1,64.2,29.84,SSE,157,4.2,-999.0,97,-99.99,,,0.00,Acu-Link.com,2013-01-28 15:07:00,
2013-01-28 09:22:00,66.2,65.0,29.84,South,180,2.7,-999.0,96,-99.99,,,0.00,Acu-Link.com,2013-01-28 15:22:00,
2013-01-28 09:37:00,67.3,65.2,29.83,SSE,157,4.2,-999.0,93,-99.99,,,0.00,Acu-Link.com,2013-01-28 15:37:00,
2013-01-28 09:53:00,67.8,65.1,29.83,South,180,3.7,-999.0,91,-99.99,,,0.00,Acu-Link.com,2013-01-28 15:53:00,
2013-01-28 10:08:00,68.7,65.0,29.83,South,180,3.7,-999.0,88,-99.99,,,0.00,Acu-Link.com,2013-01-28 16:08:00,
2013-01-28 10:23:00,70.2,64.8,29.83,SW,225,3.2,-999.0,83,-99.99,,,0.00,Acu-Link.com,2013-01-28 16:23:00,
2013-01-28 10:38:00,71.1,64.2,29.83,SSW,202,3.7,-999.0,79,-99.99,,,0.00,Acu-Link.com,2013-01-28 16:38:00,
2013-01-28 10:54:00,72.1,63.7,29.82,SSE,157,4.7,-999.0,75,-99.99,,,0.00,Acu-Link.com,2013-01-28 16:54:00,
2013-01-28 11:09:00,72.7,63.5,29.82,SSE,157,10.4,-999.0,73,-99.99,,,0.00,Acu-Link.com,2013-01-28 17:09:00,
2013-01-28 11:24:00,73.9,63.5,29.81,South,180,6.3,-999.0,70,-99.99,,,0.00,Acu-Link.com,2013-01-28 17:24:00,
2013-01-28 11:39:00,75.7,63.5,29.81,WSW,247,13.0,-999.0,66,-99.99,,,0.00,Acu-Link.com,2013-01-28 17:39:00,
2013-01-28 11:55:00,77.4,63.3,29.79,SSE,157,7.8,-999.0,62,-99.99,,,0.00,Acu-Link.com,2013-01-28 17:55:00,
2013-01-28 12:10:00,78.6,63.5,29.78,WSW,247,9.9,-999.0,60,-99.99,,,0.00,Acu-Link.com,2013-01-28 18:10:00,
2013-01-28 12:25:00,77.2,62.7,29.78,SSW,202,11.9,-999.0,61,-99.99,,,0.00,Acu-Link.com,2013-01-28 18:25:00,
2013-01-28 12:40:00,78.4,62.9,29.76,SW,225,6.3,-999.0,59,-99.99,,,0.00,Acu-Link.com,2013-01-28 18:40:00,
2013-01-28 12:56:00,80.2,63.1,29.75,SW,225,9.9,-999.0,56,-99.99,,,0.00,Acu-Link.com,2013-01-28 18:56:00,
2013-01-28 13:11:00,80.1,62.5,29.73,ESE,112,5.8,-999.0,55,-99.99,,,0.00,Acu-Link.com,2013-01-28 19:11:00,
2013-01-28 13:26:00,79.0,61.9,29.72,SE,135,20.2,-999.0,56,-99.99,,,0.00,Acu-Link.com,2013-01-28 19:26:00,
2013-01-28 13:41:00,79.3,62.2,29.72,SSW,202,6.3,-999.0,56,-99.99,,,0.00,Acu-Link.com,2013-01-28 19:41:00,
2013-01-28 13:57:00,81.3,63.0,29.72,SSW,202,5.8,-999.0,54,-99.99,,,0.00,Acu-Link.com,2013-01-28 19:57:00,
2013-01-28 14:12:00,81.3,62.5,29.70,SE,135,8.3,-999.0,53,-99.99,,,0.00,Acu-Link.com,2013-01-28 20:12:00,
2013-01-28 14:27:00,81.9,63.1,29.70,SSW,202,4.7,-999.0,53,-99.99,,,0.00,Acu-Link.com,2013-01-28 20:27:00,
2013-01-28 14:42:00,81.3,62.5,29.69,ESE,112,6.8,-999.0,53,-99.99,,,0.00,Acu-Link.com,2013-01-28 20:42:00,
2013-01-28 14:57:00,80.4,61.7,29.69,South,180,6.3,-999.0,53,-99.99,,,0.00,Acu-Link.com,2013-01-28 20:57:00,
2013-01-28 15:12:00,79.3,61.2,29.69,SSW,202,11.9,-999.0,54,-99.99,,,0.00,Acu-Link.com,2013-01-28 21:12:00,
2013-01-28 15:28:00,80.4,62.2,29.68,South,180,8.9,-999.0,54,-99.99,,,0.00,Acu-Link.com,2013-01-28 21:28:00,
2013-01-28 15:43:00,79.3,61.7,29.69,South,180,6.8,-999.0,55,-99.99,,,0.00,Acu-Link.com,2013-01-28 21:43:00,
2013-01-28 15:58:00,78.6,61.6,29.68,SSE,157,4.7,-999.0,56,-99.99,,,0.00,Acu-Link.com,2013-01-28 21:58:00,
2013-01-28 16:14:00,78.3,61.8,29.68,West,270,9.4,-999.0,57,-99.99,,,0.00,Acu-Link.com,2013-01-28 22:14:00,
2013-01-28 16:29:00,78.1,61.6,29.68,SSW,202,6.3,-999.0,57,-99.99,,,0.00,Acu-Link.com,2013-01-28 22:29:00,
2013-01-28 16:45:00,77.5,61.5,29.68,SW,225,7.3,-999.0,58,-99.99,,,0.00,Acu-Link.com,2013-01-28 22:45:00,
2013-01-28 17:00:00,77.2,61.3,29.68,SSE,157,11.9,-999.0,58,-99.99,,,0.00,Acu-Link.com,2013-01-28 23:00:00,
2013-01-28 17:15:00,76.5,61.6,29.68,SSE,157,6.3,-999.0,60,-99.99,,,0.00,Acu-Link.com,2013-01-28 23:15:00,
2013-01-28 17:31:00,76.1,61.2,29.68,SW,225,8.9,-999.0,60,-99.99,,,0.00,Acu-Link.com,2013-01-28 23:31:00,
2013-01-28 17:46:00,75.0,60.6,29.69,South,180,2.7,-999.0,61,-99.99,,,0.00,Acu-Link.com,2013-01-28 23:46:00,
2013-01-28 18:01:00,74.7,60.8,29.69,SSE,157,5.3,-999.0,62,-99.99,,,0.00,Acu-Link.com,2013-01-29 00:01:00,
2013-01-28 18:17:00,73.9,60.9,29.69,SSE,157,5.3,-999.0,64,-99.99,,,0.00,Acu-Link.com,2013-01-29 00:17:00,
2013-01-28 18:32:00,72.9,60.9,29.68,South,180,8.9,-999.0,66,-99.99,,,0.00,Acu-Link.com,2013-01-29 00:32:00,
2013-01-28 18:47:00,72.1,61.4,29.67,SE,135,6.8,-999.0,69,-99.99,,,0.00,Acu-Link.com,2013-01-29 00:47:00,
2013-01-28 19:02:00,71.6,61.3,29.68,ESE,112,7.3,-999.0,70,-99.99,,,0.00,Acu-Link.com,2013-01-29 01:02:00,
2013-01-28 19:18:00,71.1,62.0,29.68,SSW,202,8.3,-999.0,73,-99.99,,,0.00,Acu-Link.com,2013-01-29 01:18:00,
2013-01-28 19:33:00,70.3,62.0,29.69,SSW,202,8.3,-999.0,75,-99.99,,,0.00,Acu-Link.com,2013-01-29 01:33:00,
2013-01-28 19:49:00,69.8,61.9,29.69,South,180,3.7,-999.0,76,-99.99,,,0.00,Acu-Link.com,2013-01-29 01:49:00,
2013-01-28 20:04:00,69.3,61.8,29.69,SSE,157,6.8,-999.0,77,-99.99,,,0.00,Acu-Link.com,2013-01-29 02:04:00,
2013-01-28 20:20:00,68.7,61.6,29.70,South,180,5.3,-999.0,78,-99.99,,,0.00,Acu-Link.com,2013-01-29 02:20:00,
2013-01-28 20:35:00,68.5,62.1,29.70,WSW,247,5.3,-999.0,80,-99.99,,,0.00,Acu-Link.com,2013-01-29 02:35:00,
2013-01-28 20:50:00,68.0,61.9,29.70,SSE,157,4.7,-999.0,81,-99.99,,,0.00,Acu-Link.com,2013-01-29 02:50:00,
2013-01-28 21:06:00,67.3,62.0,29.70,South,180,2.2,-999.0,83,-99.99,,,0.00,Acu-Link.com,2013-01-29 03:06:00,
2013-01-28 21:21:00,67.3,62.0,29.70,SW,225,1.7,-999.0,83,-99.99,,,0.00,Acu-Link.com,2013-01-29 03:21:00,
2013-01-28 21:37:00,66.7,62.0,29.70,SSE,157,4.2,-999.0,85,-99.99,,,0.00,Acu-Link.com,2013-01-29 03:37:00,
2013-01-28 21:52:00,66.9,62.2,29.69,SE,135,3.7,-999.0,85,-99.99,,,0.00,Acu-Link.com,2013-01-29 03:52:00,
2013-01-28 22:07:00,66.9,62.6,29.68,SSE,157,5.3,-999.0,86,-99.99,,,0.00,Acu-Link.com,2013-01-29 04:07:00,
2013-01-28 22:22:00,66.9,63.2,29.68,SE,135,7.3,-999.0,88,-99.99,,,0.00,Acu-Link.com,2013-01-29 04:22:00,
2013-01-28 22:38:00,67.1,63.4,29.66,SSE,157,6.3,-999.0,88,-99.99,,,0.00,Acu-Link.com,2013-01-29 04:38:00,
2013-01-28 22:53:00,67.1,63.7,29.68,SSE,157,6.3,-999.0,89,-99.99,,,0.00,Acu-Link.com,2013-01-29 04:53:00,
2013-01-28 23:09:00,67.1,64.1,29.67,SE,135,7.3,-999.0,90,-99.99,,,0.00,Acu-Link.com,2013-01-29 05:09:00,
2013-01-28 23:24:00,66.7,64.0,29.68,South,180,4.2,-999.0,91,-99.99,,,0.00,Acu-Link.com,2013-01-29 05:24:00,
2013-01-28 23:40:00,66.7,64.0,29.67,SSE,157,4.2,-999.0,91,-99.99,,,0.00,Acu-Link.com,2013-01-29 05:40:00,
2013-01-28 23:55:00,67.1,64.4,29.66,SSE,157,7.3,-999.0,91,-99.99,,,0.00,Acu-Link.com,2013-01-29 05:55:00,